sensor_id;sensor_type;location;lat;lon;timestamp;temperature;humidity
30280;DHT22;17097;50.916;5.344;2023-04-03T00:00:25;5.50;99.90
30280;DHT22;17097;50.916;5.344;2023-04-03T00:02:52;5.60;99.90
30280;DHT22;17097;50.916;5.344;2023-04-03T00:05:17;5.50;99.90
30280;DHT22;17097;50.916;5.344;2023-04-03T00:07:43;5.50;99.90
30280;DHT22;17097;50.916;5.344;2023-04-03T00:10:10;5.50;99.90
30280;DHT22;17097;50.916;5.344;2023-04-03T00:12:36;5.50;99.90
30280;DHT22;17097;50.916;5.344;2023-04-03T00:15:02;5.40;99.90
30280;DHT22;17097;50.916;5.344;2023-04-03T00:17:28;5.50;99.90
30280;DHT22;17097;50.916;5.344;2023-04-03T00:19:54;5.50;99.90
30280;DHT22;17097;50.916;5.344;2023-04-03T00:22:20;5.50;99.90
30280;DHT22;17097;50.916;5.344;2023-04-03T00:24:45;5.50;99.90
30280;DHT22;17097;50.916;5.344;2023-04-03T00:27:12;5.40;99.90
30280;DHT22;17097;50.916;5.344;2023-04-03T00:29:37;5.40;99.90
30280;DHT22;17097;50.916;5.344;2023-04-03T00:32:04;5.40;99.90
30280;DHT22;17097;50.916;5.344;2023-04-03T00:34:30;5.30;99.90
30280;DHT22;17097;50.916;5.344;2023-04-03T00:36:55;5.30;99.90
30280;DHT22;17097;50.916;5.344;2023-04-03T00:39:22;5.20;99.90
30280;DHT22;17097;50.916;5.344;2023-04-03T00:41:47;5.20;99.90
30280;DHT22;17097;50.916;5.344;2023-04-03T00:47:11;5.20;99.90
30280;DHT22;17097;50.916;5.344;2023-04-03T00:49:38;5.10;99.90
30280;DHT22;17097;50.916;5.344;2023-04-03T00:52:12;5.10;99.90
30280;DHT22;17097;50.916;5.344;2023-04-03T00:54:43;5.00;99.90
30280;DHT22;17097;50.916;5.344;2023-04-03T00:57:11;5.00;99.90
30280;DHT22;17097;50.916;5.344;2023-04-03T00:59:49;5.00;99.90
30280;DHT22;17097;50.916;5.344;2023-04-03T01:02:16;5.00;99.90
30280;DHT22;17097;50.916;5.344;2023-04-03T01:04:43;5.00;99.90
30280;DHT22;17097;50.916;5.344;2023-04-03T01:09:43;4.90;99.90
30280;DHT22;17097;50.916;5.344;2023-04-03T01:12:26;4.90;99.90
30280;DHT22;17097;50.916;5.344;2023-04-03T01:15:01;4.90;99.90
30280;DHT22;17097;50.916;5.344;2023-04-03T01:17:39;4.90;99.90
30280;DHT22;17097;50.916;5.344;2023-04-03T01:25:16;4.80;99.90
30280;DHT22;17097;50.916;5.344;2023-04-03T01:27:42;4.70;99.90
30280;DHT22;17097;50.916;5.344;2023-04-03T01:30:08;4.80;99.90
30280;DHT22;17097;50.916;5.344;2023-04-03T01:32:34;4.70;99.90
30280;DHT22;17097;50.916;5.344;2023-04-03T01:35:00;4.70;99.90
30280;DHT22;17097;50.916;5.344;2023-04-03T01:37:26;4.70;99.90
30280;DHT22;17097;50.916;5.344;2023-04-03T01:39:52;4.70;99.90
30280;DHT22;17097;50.916;5.344;2023-04-03T01:42:18;4.70;99.90
30280;DHT22;17097;50.916;5.344;2023-04-03T01:44:43;4.60;99.90
30280;DHT22;17097;50.916;5.344;2023-04-03T01:47:10;4.70;99.90
30280;DHT22;17097;50.916;5.344;2023-04-03T01:49:35;4.60;99.90
30280;DHT22;17097;50.916;5.344;2023-04-03T01:52:01;4.60;99.90
30280;DHT22;17097;50.916;5.344;2023-04-03T01:54:27;4.60;99.90
30280;DHT22;17097;50.916;5.344;2023-04-03T01:56:53;4.60;99.90
30280;DHT22;17097;50.916;5.344;2023-04-03T01:59:19;4.60;99.90
30280;DHT22;17097;50.916;5.344;2023-04-03T02:01:45;4.50;99.90
30280;DHT22;17097;50.916;5.344;2023-04-03T02:04:12;4.50;99.90
30280;DHT22;17097;50.916;5.344;2023-04-03T02:06:37;4.50;99.90
30280;DHT22;17097;50.916;5.344;2023-04-03T02:09:03;4.50;99.90
30280;DHT22;17097;50.916;5.344;2023-04-03T02:11:30;4.50;99.90
30280;DHT22;17097;50.916;5.344;2023-04-03T02:13:56;4.50;99.90
30280;DHT22;17097;50.916;5.344;2023-04-03T02:16:22;4.50;99.90
30280;DHT22;17097;50.916;5.344;2023-04-03T02:18:48;4.50;99.90
30280;DHT22;17097;50.916;5.344;2023-04-03T02:21:14;4.40;99.90
30280;DHT22;17097;50.916;5.344;2023-04-03T02:23:41;4.40;99.90
30280;DHT22;17097;50.916;5.344;2023-04-03T02:26:10;4.40;99.90
30280;DHT22;17097;50.916;5.344;2023-04-03T02:28:37;4.30;99.90
30280;DHT22;17097;50.916;5.344;2023-04-03T02:31:06;4.30;99.90
30280;DHT22;17097;50.916;5.344;2023-04-03T02:33:36;4.20;99.90
30280;DHT22;17097;50.916;5.344;2023-04-03T02:36:04;4.20;99.90
30280;DHT22;17097;50.916;5.344;2023-04-03T02:38:30;4.10;99.90
30280;DHT22;17097;50.916;5.344;2023-04-03T02:41:05;4.10;99.90
30280;DHT22;17097;50.916;5.344;2023-04-03T02:43:32;4.20;99.90
30280;DHT22;17097;50.916;5.344;2023-04-03T02:45:58;4.10;99.90
30280;DHT22;17097;50.916;5.344;2023-04-03T02:48:27;4.10;99.90
30280;DHT22;17097;50.916;5.344;2023-04-03T02:50:55;4.10;99.90
30280;DHT22;17097;50.916;5.344;2023-04-03T02:53:21;4.10;99.90
30280;DHT22;17097;50.916;5.344;2023-04-03T02:55:47;4.10;99.90
30280;DHT22;17097;50.916;5.344;2023-04-03T02:58:14;4.00;99.90
30280;DHT22;17097;50.916;5.344;2023-04-03T03:00:40;4.00;99.90
30280;DHT22;17097;50.916;5.344;2023-04-03T03:03:06;4.00;99.90
30280;DHT22;17097;50.916;5.344;2023-04-03T03:05:32;3.90;99.90
30280;DHT22;17097;50.916;5.344;2023-04-03T03:07:58;4.00;99.90
30280;DHT22;17097;50.916;5.344;2023-04-03T03:10:25;3.90;99.90
30280;DHT22;17097;50.916;5.344;2023-04-03T03:12:50;3.90;99.90
30280;DHT22;17097;50.916;5.344;2023-04-03T03:15:17;3.90;99.90
30280;DHT22;17097;50.916;5.344;2023-04-03T03:17:44;4.00;99.90
30280;DHT22;17097;50.916;5.344;2023-04-03T03:20:11;3.90;99.90
30280;DHT22;17097;50.916;5.344;2023-04-03T03:22:37;3.90;99.90
30280;DHT22;17097;50.916;5.344;2023-04-03T03:25:04;3.90;99.90
30280;DHT22;17097;50.916;5.344;2023-04-03T03:27:32;3.90;99.90
30280;DHT22;17097;50.916;5.344;2023-04-03T03:30:00;3.80;99.90
30280;DHT22;17097;50.916;5.344;2023-04-03T03:32:26;3.80;99.90
30280;DHT22;17097;50.916;5.344;2023-04-03T03:34:51;3.80;99.90
30280;DHT22;17097;50.916;5.344;2023-04-03T03:37:17;3.80;99.90
30280;DHT22;17097;50.916;5.344;2023-04-03T03:39:43;3.80;99.90
30280;DHT22;17097;50.916;5.344;2023-04-03T03:42:09;3.80;99.90
30280;DHT22;17097;50.916;5.344;2023-04-03T03:44:37;3.80;99.90
30280;DHT22;17097;50.916;5.344;2023-04-03T03:47:05;3.80;99.90
30280;DHT22;17097;50.916;5.344;2023-04-03T03:49:31;3.70;99.90
30280;DHT22;17097;50.916;5.344;2023-04-03T03:51:57;3.70;99.90
30280;DHT22;17097;50.916;5.344;2023-04-03T03:54:22;3.80;99.90
30280;DHT22;17097;50.916;5.344;2023-04-03T03:56:49;3.70;99.90
30280;DHT22;17097;50.916;5.344;2023-04-03T03:59:17;3.80;99.90
30280;DHT22;17097;50.916;5.344;2023-04-03T04:01:43;3.80;99.90
30280;DHT22;17097;50.916;5.344;2023-04-03T04:04:09;3.70;99.90
30280;DHT22;17097;50.916;5.344;2023-04-03T04:06:35;3.70;99.90
30280;DHT22;17097;50.916;5.344;2023-04-03T04:09:01;3.70;99.90
30280;DHT22;17097;50.916;5.344;2023-04-03T04:11:27;3.70;99.90
30280;DHT22;17097;50.916;5.344;2023-04-03T04:13:57;3.70;99.90
30280;DHT22;17097;50.916;5.344;2023-04-03T04:16:23;3.60;99.90
30280;DHT22;17097;50.916;5.344;2023-04-03T04:18:51;3.70;99.90
30280;DHT22;17097;50.916;5.344;2023-04-03T04:21:17;3.70;99.90
30280;DHT22;17097;50.916;5.344;2023-04-03T04:23:43;3.70;99.90
30280;DHT22;17097;50.916;5.344;2023-04-03T04:26:08;3.60;99.90
30280;DHT22;17097;50.916;5.344;2023-04-03T04:28:34;3.60;99.90
30280;DHT22;17097;50.916;5.344;2023-04-03T04:31:00;3.70;99.90
30280;DHT22;17097;50.916;5.344;2023-04-03T04:33:26;3.70;99.90
30280;DHT22;17097;50.916;5.344;2023-04-03T04:35:52;3.60;99.90
30280;DHT22;17097;50.916;5.344;2023-04-03T04:38:18;3.60;99.90
30280;DHT22;17097;50.916;5.344;2023-04-03T04:40:44;3.60;99.90
30280;DHT22;17097;50.916;5.344;2023-04-03T04:43:10;3.60;99.90
30280;DHT22;17097;50.916;5.344;2023-04-03T04:45:40;3.50;99.90
30280;DHT22;17097;50.916;5.344;2023-04-03T04:48:06;3.60;99.90
30280;DHT22;17097;50.916;5.344;2023-04-03T04:50:32;3.50;99.90
30280;DHT22;17097;50.916;5.344;2023-04-03T04:53:01;3.60;99.90
30280;DHT22;17097;50.916;5.344;2023-04-03T04:55:26;3.60;99.90
30280;DHT22;17097;50.916;5.344;2023-04-03T04:57:52;3.60;99.90
30280;DHT22;17097;50.916;5.344;2023-04-03T05:00:20;3.60;99.90
30280;DHT22;17097;50.916;5.344;2023-04-03T05:02:47;3.60;99.90
30280;DHT22;17097;50.916;5.344;2023-04-03T05:05:12;3.60;99.90
30280;DHT22;17097;50.916;5.344;2023-04-03T05:07:38;3.60;99.90
30280;DHT22;17097;50.916;5.344;2023-04-03T05:10:05;3.60;99.90
30280;DHT22;17097;50.916;5.344;2023-04-03T05:12:31;3.60;99.90
30280;DHT22;17097;50.916;5.344;2023-04-03T05:14:57;3.60;99.90
30280;DHT22;17097;50.916;5.344;2023-04-03T05:17:23;3.60;99.90
30280;DHT22;17097;50.916;5.344;2023-04-03T05:19:52;3.60;99.90
30280;DHT22;17097;50.916;5.344;2023-04-03T05:22:20;3.60;99.90
30280;DHT22;17097;50.916;5.344;2023-04-03T05:24:46;3.60;99.90
30280;DHT22;17097;50.916;5.344;2023-04-03T05:27:12;3.60;99.90
30280;DHT22;17097;50.916;5.344;2023-04-03T05:29:38;3.60;99.90
30280;DHT22;17097;50.916;5.344;2023-04-03T05:32:04;3.70;99.90
30280;DHT22;17097;50.916;5.344;2023-04-03T05:34:30;3.70;99.90
30280;DHT22;17097;50.916;5.344;2023-04-03T05:36:56;3.90;99.90
30280;DHT22;17097;50.916;5.344;2023-04-03T05:39:22;4.20;99.90
30280;DHT22;17097;50.916;5.344;2023-04-03T05:41:48;4.30;99.90
30280;DHT22;17097;50.916;5.344;2023-04-03T05:44:13;4.30;99.90
30280;DHT22;17097;50.916;5.344;2023-04-03T05:46:40;4.50;99.90
30280;DHT22;17097;50.916;5.344;2023-04-03T05:49:06;5.10;99.90
30280;DHT22;17097;50.916;5.344;2023-04-03T05:51:35;5.80;99.90
30280;DHT22;17097;50.916;5.344;2023-04-03T05:54:16;6.60;99.90
30280;DHT22;17097;50.916;5.344;2023-04-03T05:56:43;7.50;99.90
30280;DHT22;17097;50.916;5.344;2023-04-03T05:59:09;8.30;99.90
30280;DHT22;17097;50.916;5.344;2023-04-03T06:01:35;9.10;99.90
30280;DHT22;17097;50.916;5.344;2023-04-03T06:04:03;9.60;99.90
30280;DHT22;17097;50.916;5.344;2023-04-03T06:06:49;10.10;99.90
30280;DHT22;17097;50.916;5.344;2023-04-03T06:09:17;10.30;99.90
30280;DHT22;17097;50.916;5.344;2023-04-03T06:11:44;10.20;99.90
30280;DHT22;17097;50.916;5.344;2023-04-03T06:14:10;10.00;99.90
30280;DHT22;17097;50.916;5.344;2023-04-03T06:16:36;9.80;99.90
30280;DHT22;17097;50.916;5.344;2023-04-03T06:19:02;9.60;99.90
30280;DHT22;17097;50.916;5.344;2023-04-03T06:21:29;9.60;99.90
30280;DHT22;17097;50.916;5.344;2023-04-03T06:23:55;9.60;99.90
30280;DHT22;17097;50.916;5.344;2023-04-03T06:26:21;9.70;99.90
30280;DHT22;17097;50.916;5.344;2023-04-03T06:28:47;9.90;99.90
30280;DHT22;17097;50.916;5.344;2023-04-03T06:31:13;10.40;99.90
30280;DHT22;17097;50.916;5.344;2023-04-03T06:33:41;11.00;99.90
30280;DHT22;17097;50.916;5.344;2023-04-03T06:36:09;11.50;99.90
30280;DHT22;17097;50.916;5.344;2023-04-03T06:38:35;12.10;99.90
30280;DHT22;17097;50.916;5.344;2023-04-03T06:41:01;12.60;99.90
30280;DHT22;17097;50.916;5.344;2023-04-03T06:43:28;13.30;99.90
30280;DHT22;17097;50.916;5.344;2023-04-03T06:45:54;13.80;99.90
30280;DHT22;17097;50.916;5.344;2023-04-03T06:48:20;14.30;99.90
30280;DHT22;17097;50.916;5.344;2023-04-03T06:50:46;14.50;99.00
30280;DHT22;17097;50.916;5.344;2023-04-03T06:53:12;14.70;97.60
30280;DHT22;17097;50.916;5.344;2023-04-03T06:55:38;14.60;97.00
30280;DHT22;17097;50.916;5.344;2023-04-03T06:58:04;14.30;97.40
30280;DHT22;17097;50.916;5.344;2023-04-03T07:00:32;13.80;97.60
30280;DHT22;17097;50.916;5.344;2023-04-03T07:02:58;13.70;98.30
30280;DHT22;17097;50.916;5.344;2023-04-03T07:05:24;13.80;98.20
30280;DHT22;17097;50.916;5.344;2023-04-03T07:07:50;13.90;97.80
30280;DHT22;17097;50.916;5.344;2023-04-03T07:10:17;13.50;97.20
30280;DHT22;17097;50.916;5.344;2023-04-03T07:12:43;13.20;99.10
30280;DHT22;17097;50.916;5.344;2023-04-03T07:15:09;13.40;99.50
30280;DHT22;17097;50.916;5.344;2023-04-03T07:17:35;13.30;99.00
30280;DHT22;17097;50.916;5.344;2023-04-03T07:20:03;13.00;99.80
30280;DHT22;17097;50.916;5.344;2023-04-03T07:22:29;12.80;99.90
30280;DHT22;17097;50.916;5.344;2023-04-03T07:24:56;13.10;99.90
30280;DHT22;17097;50.916;5.344;2023-04-03T07:27:22;13.10;99.90
30280;DHT22;17097;50.916;5.344;2023-04-03T07:29:50;13.20;99.90
30280;DHT22;17097;50.916;5.344;2023-04-03T07:32:17;13.40;98.90
30280;DHT22;17097;50.916;5.344;2023-04-03T07:34:46;13.60;99.20
30280;DHT22;17097;50.916;5.344;2023-04-03T07:37:12;13.80;98.90
30280;DHT22;17097;50.916;5.344;2023-04-03T07:39:38;14.00;97.80
30280;DHT22;17097;50.916;5.344;2023-04-03T07:42:04;13.90;97.90
30280;DHT22;17097;50.916;5.344;2023-04-03T07:44:30;13.80;98.00
30280;DHT22;17097;50.916;5.344;2023-04-03T07:46:56;13.50;98.30
30280;DHT22;17097;50.916;5.344;2023-04-03T07:49:23;13.40;99.70
30280;DHT22;17097;50.916;5.344;2023-04-03T07:51:54;13.40;99.10
30280;DHT22;17097;50.916;5.344;2023-04-03T07:54:20;13.30;98.90
30280;DHT22;17097;50.916;5.344;2023-04-03T07:56:46;13.20;98.90
30280;DHT22;17097;50.916;5.344;2023-04-03T07:59:15;13.10;98.60
30280;DHT22;17097;50.916;5.344;2023-04-03T08:01:43;13.10;98.70
30280;DHT22;17097;50.916;5.344;2023-04-03T08:04:09;12.60;99.90
30280;DHT22;17097;50.916;5.344;2023-04-03T08:06:35;12.70;99.90
30280;DHT22;17097;50.916;5.344;2023-04-03T08:09:03;12.80;99.40
30280;DHT22;17097;50.916;5.344;2023-04-03T08:11:29;13.00;98.70
30280;DHT22;17097;50.916;5.344;2023-04-03T08:13:56;13.20;98.50
30280;DHT22;17097;50.916;5.344;2023-04-03T08:16:24;13.40;98.40
30280;DHT22;17097;50.916;5.344;2023-04-03T08:18:55;13.40;98.60
30280;DHT22;17097;50.916;5.344;2023-04-03T08:21:21;13.70;97.40
30280;DHT22;17097;50.916;5.344;2023-04-03T08:23:49;14.40;97.20
30280;DHT22;17097;50.916;5.344;2023-04-03T08:26:35;14.50;93.80
30280;DHT22;17097;50.916;5.344;2023-04-03T08:29:01;15.10;94.40
30280;DHT22;17097;50.916;5.344;2023-04-03T08:31:27;15.40;93.50
30280;DHT22;17097;50.916;5.344;2023-04-03T08:33:53;15.90;92.70
30280;DHT22;17097;50.916;5.344;2023-04-03T08:36:24;16.10;89.70
30280;DHT22;17097;50.916;5.344;2023-04-03T08:38:51;16.30;88.30
30280;DHT22;17097;50.916;5.344;2023-04-03T08:41:40;16.50;88.60
30280;DHT22;17097;50.916;5.344;2023-04-03T08:44:34;16.80;83.20
30280;DHT22;17097;50.916;5.344;2023-04-03T08:49:41;16.90;81.40
30280;DHT22;17097;50.916;5.344;2023-04-03T08:52:15;17.00;79.20
30280;DHT22;17097;50.916;5.344;2023-04-03T08:54:54;17.10;77.80
30280;DHT22;17097;50.916;5.344;2023-04-03T08:57:34;17.70;78.40
30280;DHT22;17097;50.916;5.344;2023-04-03T09:00:26;18.50;73.00
30280;DHT22;17097;50.916;5.344;2023-04-03T09:02:53;19.30;69.80
30280;DHT22;17097;50.916;5.344;2023-04-03T09:16:52;19.70;58.50
30280;DHT22;17097;50.916;5.344;2023-04-03T09:21:53;20.60;57.70
30280;DHT22;17097;50.916;5.344;2023-04-03T09:24:22;20.70;55.00
30280;DHT22;17097;50.916;5.344;2023-04-03T09:26:53;20.70;53.90
30280;DHT22;17097;50.916;5.344;2023-04-03T09:29:26;21.10;55.30
30280;DHT22;17097;50.916;5.344;2023-04-03T09:32:02;21.80;56.90
30280;DHT22;17097;50.916;5.344;2023-04-03T09:34:37;22.20;54.10
30280;DHT22;17097;50.916;5.344;2023-04-03T09:37:04;22.90;51.80
30280;DHT22;17097;50.916;5.344;2023-04-03T09:39:52;22.70;50.50
30280;DHT22;17097;50.916;5.344;2023-04-03T09:42:25;23.00;49.40
30280;DHT22;17097;50.916;5.344;2023-04-03T09:45:03;23.10;49.90
30280;DHT22;17097;50.916;5.344;2023-04-03T09:47:36;22.60;48.40
30280;DHT22;17097;50.916;5.344;2023-04-03T09:50:19;22.60;48.60
30280;DHT22;17097;50.916;5.344;2023-04-03T09:52:48;21.90;51.80
30280;DHT22;17097;50.916;5.344;2023-04-03T09:55:16;22.10;50.20
30280;DHT22;17097;50.916;5.344;2023-04-03T09:57:45;22.10;48.10
30280;DHT22;17097;50.916;5.344;2023-04-03T10:00:26;22.50;48.50
30280;DHT22;17097;50.916;5.344;2023-04-03T10:02:55;22.50;47.50
30280;DHT22;17097;50.916;5.344;2023-04-03T10:05:41;23.00;47.00
30280;DHT22;17097;50.916;5.344;2023-04-03T10:10:49;22.90;45.90
30280;DHT22;17097;50.916;5.344;2023-04-03T10:13:30;23.10;44.50
30280;DHT22;17097;50.916;5.344;2023-04-03T10:15:57;22.90;46.00
30280;DHT22;17097;50.916;5.344;2023-04-03T10:24:20;22.00;41.60
30280;DHT22;17097;50.916;5.344;2023-04-03T10:29:41;21.60;40.20
30280;DHT22;17097;50.916;5.344;2023-04-03T10:32:26;21.70;43.30
30280;DHT22;17097;50.916;5.344;2023-04-03T10:37:38;22.00;41.00
30280;DHT22;17097;50.916;5.344;2023-04-03T10:40:19;22.30;40.20
30280;DHT22;17097;50.916;5.344;2023-04-03T10:42:58;21.80;37.50
30280;DHT22;17097;50.916;5.344;2023-04-03T10:51:39;20.40;38.50
30280;DHT22;17097;50.916;5.344;2023-04-03T10:54:26;20.10;39.20
30280;DHT22;17097;50.916;5.344;2023-04-03T10:57:03;20.10;40.50
30280;DHT22;17097;50.916;5.344;2023-04-03T10:59:44;20.00;40.10
30280;DHT22;17097;50.916;5.344;2023-04-03T11:04:43;18.60;38.60
30280;DHT22;17097;50.916;5.344;2023-04-03T11:07:26;18.10;39.70
30280;DHT22;17097;50.916;5.344;2023-04-03T11:09:58;18.30;42.20
30280;DHT22;17097;50.916;5.344;2023-04-03T11:12:33;17.80;40.40
30280;DHT22;17097;50.916;5.344;2023-04-03T11:15:02;18.00;42.20
30280;DHT22;17097;50.916;5.344;2023-04-03T11:17:39;18.30;42.90
30280;DHT22;17097;50.916;5.344;2023-04-03T11:23:06;18.40;44.40
30280;DHT22;17097;50.916;5.344;2023-04-03T11:25:31;18.30;43.20
30280;DHT22;17097;50.916;5.344;2023-04-03T11:28:11;18.20;42.10
30280;DHT22;17097;50.916;5.344;2023-04-03T11:30:44;17.90;41.90
30280;DHT22;17097;50.916;5.344;2023-04-03T11:35:57;17.30;45.30
30280;DHT22;17097;50.916;5.344;2023-04-03T11:38:30;16.80;46.30
30280;DHT22;17097;50.916;5.344;2023-04-03T11:41:00;16.60;45.30
30280;DHT22;17097;50.916;5.344;2023-04-03T11:43:29;16.40;46.70
30280;DHT22;17097;50.916;5.344;2023-04-03T11:46:06;16.40;47.80
30280;DHT22;17097;50.916;5.344;2023-04-03T11:51:03;15.80;48.00
30280;DHT22;17097;50.916;5.344;2023-04-03T11:53:48;15.40;47.50
30280;DHT22;17097;50.916;5.344;2023-04-03T12:01:58;15.30;49.40
30280;DHT22;17097;50.916;5.344;2023-04-03T12:04:26;14.90;47.10
30280;DHT22;17097;50.916;5.344;2023-04-03T12:07:13;14.80;48.30
30280;DHT22;17097;50.916;5.344;2023-04-03T12:12:37;14.20;51.20
30280;DHT22;17097;50.916;5.344;2023-04-03T12:18:40;14.00;52.90
30280;DHT22;17097;50.916;5.344;2023-04-03T12:21:07;14.10;52.90
30280;DHT22;17097;50.916;5.344;2023-04-03T12:23:35;13.70;53.10
30280;DHT22;17097;50.916;5.344;2023-04-03T12:26:06;13.70;55.10
30280;DHT22;17097;50.916;5.344;2023-04-03T12:28:45;13.80;54.20
30280;DHT22;17097;50.916;5.344;2023-04-03T12:31:14;13.90;52.60
30280;DHT22;17097;50.916;5.344;2023-04-03T12:37:03;14.20;55.20
30280;DHT22;17097;50.916;5.344;2023-04-03T12:45:17;14.60;52.60
30280;DHT22;17097;50.916;5.344;2023-04-03T12:47:45;14.80;53.80
30280;DHT22;17097;50.916;5.344;2023-04-03T12:50:31;15.00;51.20
30280;DHT22;17097;50.916;5.344;2023-04-03T12:58:44;15.50;53.00
30280;DHT22;17097;50.916;5.344;2023-04-03T13:01:13;15.50;52.40
30280;DHT22;17097;50.916;5.344;2023-04-03T13:03:43;15.40;53.40
30280;DHT22;17097;50.916;5.344;2023-04-03T13:06:23;15.60;52.60
30280;DHT22;17097;50.916;5.344;2023-04-03T13:08:59;16.00;52.00
30280;DHT22;17097;50.916;5.344;2023-04-03T13:11:38;16.10;51.20
30280;DHT22;17097;50.916;5.344;2023-04-03T13:14:20;16.20;50.30
30280;DHT22;17097;50.916;5.344;2023-04-03T13:16:58;16.10;50.70
30280;DHT22;17097;50.916;5.344;2023-04-03T13:19:25;16.10;53.10
30280;DHT22;17097;50.916;5.344;2023-04-03T13:24:51;15.60;52.40
30280;DHT22;17097;50.916;5.344;2023-04-03T13:27:19;15.40;51.20
30280;DHT22;17097;50.916;5.344;2023-04-03T13:29:50;15.40;52.20
30280;DHT22;17097;50.916;5.344;2023-04-03T13:32:20;15.40;53.60
30280;DHT22;17097;50.916;5.344;2023-04-03T13:34:47;15.60;53.30
30280;DHT22;17097;50.916;5.344;2023-04-03T13:37:39;15.60;51.90
30280;DHT22;17097;50.916;5.344;2023-04-03T13:42:35;15.90;55.60
30280;DHT22;17097;50.916;5.344;2023-04-03T13:47:46;16.20;54.10
30280;DHT22;17097;50.916;5.344;2023-04-03T13:50:16;16.20;55.80
30280;DHT22;17097;50.916;5.344;2023-04-03T13:55:34;16.30;51.40
30280;DHT22;17097;50.916;5.344;2023-04-03T13:58:23;16.10;51.60
30280;DHT22;17097;50.916;5.344;2023-04-03T14:03:40;15.90;54.60
30280;DHT22;17097;50.916;5.344;2023-04-03T14:06:10;16.00;54.00
30280;DHT22;17097;50.916;5.344;2023-04-03T14:08:36;15.90;52.40
30280;DHT22;17097;50.916;5.344;2023-04-03T14:11:03;16.00;53.20
30280;DHT22;17097;50.916;5.344;2023-04-03T14:13:32;15.80;53.10
30280;DHT22;17097;50.916;5.344;2023-04-03T14:15:58;15.50;51.00
30280;DHT22;17097;50.916;5.344;2023-04-03T14:18:24;15.40;52.30
30280;DHT22;17097;50.916;5.344;2023-04-03T14:20:50;15.60;54.90
30280;DHT22;17097;50.916;5.344;2023-04-03T14:23:16;15.40;52.00
30280;DHT22;17097;50.916;5.344;2023-04-03T14:25:42;15.30;51.40
30280;DHT22;17097;50.916;5.344;2023-04-03T14:28:26;15.20;54.30
30280;DHT22;17097;50.916;5.344;2023-04-03T14:30:53;15.10;55.20
30280;DHT22;17097;50.916;5.344;2023-04-03T14:33:21;15.10;53.90
30280;DHT22;17097;50.916;5.344;2023-04-03T14:35:48;15.20;54.50
30280;DHT22;17097;50.916;5.344;2023-04-03T14:40:47;15.30;52.90
30280;DHT22;17097;50.916;5.344;2023-04-03T14:43:13;15.40;53.50
30280;DHT22;17097;50.916;5.344;2023-04-03T14:45:40;15.50;53.00
30280;DHT22;17097;50.916;5.344;2023-04-03T14:48:12;15.60;55.00
30280;DHT22;17097;50.916;5.344;2023-04-03T14:50:41;15.40;52.30
30280;DHT22;17097;50.916;5.344;2023-04-03T14:53:10;15.20;54.00
30280;DHT22;17097;50.916;5.344;2023-04-03T14:55:37;15.20;53.30
30280;DHT22;17097;50.916;5.344;2023-04-03T14:58:02;15.30;53.10
30280;DHT22;17097;50.916;5.344;2023-04-03T15:00:28;15.10;53.40
30280;DHT22;17097;50.916;5.344;2023-04-03T15:02:54;15.10;52.90
30280;DHT22;17097;50.916;5.344;2023-04-03T15:05:23;15.20;55.00
30280;DHT22;17097;50.916;5.344;2023-04-03T15:07:58;15.10;53.90
30280;DHT22;17097;50.916;5.344;2023-04-03T15:10:28;15.00;54.40
30280;DHT22;17097;50.916;5.344;2023-04-03T15:12:55;14.90;54.00
30280;DHT22;17097;50.916;5.344;2023-04-03T15:15:23;14.60;54.00
30280;DHT22;17097;50.916;5.344;2023-04-03T15:17:52;14.30;52.90
30280;DHT22;17097;50.916;5.344;2023-04-03T15:20:25;14.20;54.60
30280;DHT22;17097;50.916;5.344;2023-04-03T15:22:55;14.20;54.90
30280;DHT22;17097;50.916;5.344;2023-04-03T15:25:22;14.10;53.70
30280;DHT22;17097;50.916;5.344;2023-04-03T15:27:47;14.00;54.40
30280;DHT22;17097;50.916;5.344;2023-04-03T15:30:16;14.00;55.90
30280;DHT22;17097;50.916;5.344;2023-04-03T15:32:43;14.10;58.80
30280;DHT22;17097;50.916;5.344;2023-04-03T15:35:11;14.10;58.50
30280;DHT22;17097;50.916;5.344;2023-04-03T15:37:37;14.40;60.00
30280;DHT22;17097;50.916;5.344;2023-04-03T15:40:05;14.60;58.20
30280;DHT22;17097;50.916;5.344;2023-04-03T15:42:31;14.70;56.50
30280;DHT22;17097;50.916;5.344;2023-04-03T15:44:57;14.70;55.70
30280;DHT22;17097;50.916;5.344;2023-04-03T15:47:23;14.60;53.80
30280;DHT22;17097;50.916;5.344;2023-04-03T15:49:49;14.60;55.80
30280;DHT22;17097;50.916;5.344;2023-04-03T15:52:15;14.40;55.90
30280;DHT22;17097;50.916;5.344;2023-04-03T15:54:41;14.30;56.30
30280;DHT22;17097;50.916;5.344;2023-04-03T15:57:09;14.30;57.90
30280;DHT22;17097;50.916;5.344;2023-04-03T15:59:35;14.30;57.30
30280;DHT22;17097;50.916;5.344;2023-04-03T16:02:07;14.30;55.90
30280;DHT22;17097;50.916;5.344;2023-04-03T16:04:34;14.20;56.30
30280;DHT22;17097;50.916;5.344;2023-04-03T16:07:03;14.20;56.50
30280;DHT22;17097;50.916;5.344;2023-04-03T16:09:31;14.10;56.70
30280;DHT22;17097;50.916;5.344;2023-04-03T16:11:58;14.00;56.70
30280;DHT22;17097;50.916;5.344;2023-04-03T16:14:24;14.00;56.60
30280;DHT22;17097;50.916;5.344;2023-04-03T16:16:50;13.90;57.20
30280;DHT22;17097;50.916;5.344;2023-04-03T16:19:17;13.90;57.00
30280;DHT22;17097;50.916;5.344;2023-04-03T16:21:42;14.00;56.00
30280;DHT22;17097;50.916;5.344;2023-04-03T16:24:09;14.00;56.00
30280;DHT22;17097;50.916;5.344;2023-04-03T16:26:34;14.00;56.60
30280;DHT22;17097;50.916;5.344;2023-04-03T16:29:01;13.90;55.90
30280;DHT22;17097;50.916;5.344;2023-04-03T16:31:27;13.90;56.60
30280;DHT22;17097;50.916;5.344;2023-04-03T16:33:55;13.90;59.80
30280;DHT22;17097;50.916;5.344;2023-04-03T16:36:21;13.90;57.20
30280;DHT22;17097;50.916;5.344;2023-04-03T16:38:49;13.80;58.70
30280;DHT22;17097;50.916;5.344;2023-04-03T16:41:15;13.80;58.20
30280;DHT22;17097;50.916;5.344;2023-04-03T16:43:41;13.70;58.20
30280;DHT22;17097;50.916;5.344;2023-04-03T16:46:09;13.40;56.70
30280;DHT22;17097;50.916;5.344;2023-04-03T16:48:35;13.30;58.20
30280;DHT22;17097;50.916;5.344;2023-04-03T16:51:02;13.10;58.30
30280;DHT22;17097;50.916;5.344;2023-04-03T16:53:27;12.90;58.80
30280;DHT22;17097;50.916;5.344;2023-04-03T16:55:54;12.90;58.90
30280;DHT22;17097;50.916;5.344;2023-04-03T16:58:22;12.90;59.30
30280;DHT22;17097;50.916;5.344;2023-04-03T17:00:48;12.70;59.60
30280;DHT22;17097;50.916;5.344;2023-04-03T17:03:14;12.60;60.00
30280;DHT22;17097;50.916;5.344;2023-04-03T17:05:42;12.60;60.80
30280;DHT22;17097;50.916;5.344;2023-04-03T17:08:09;12.40;61.20
30280;DHT22;17097;50.916;5.344;2023-04-03T17:10:35;12.40;59.90
30280;DHT22;17097;50.916;5.344;2023-04-03T17:13:01;12.40;60.00
30280;DHT22;17097;50.916;5.344;2023-04-03T17:15:27;12.40;60.30
30280;DHT22;17097;50.916;5.344;2023-04-03T17:17:53;12.20;61.40
30280;DHT22;17097;50.916;5.344;2023-04-03T17:20:19;12.30;62.60
30280;DHT22;17097;50.916;5.344;2023-04-03T17:22:45;12.20;61.20
30280;DHT22;17097;50.916;5.344;2023-04-03T17:25:11;12.10;62.40
30280;DHT22;17097;50.916;5.344;2023-04-03T17:27:39;11.90;62.80